createdAt,value
2023-03-15T00:01:14.734Z,4.70
2023-03-15T00:03:42.124Z,3.75
2023-03-15T00:06:17.803Z,1.63
2023-03-15T00:08:47.514Z,4.13
2023-03-15T00:11:17.998Z,1.20
2023-03-15T00:13:45.930Z,1.90
2023-03-15T00:16:17.329Z,1.20
2023-03-15T00:18:45.298Z,4.30
2023-03-15T00:21:11.753Z,1.95
2023-03-15T00:23:38.271Z,1.73
2023-03-15T00:26:04.913Z,2.17
2023-03-15T00:28:31.310Z,1.85
2023-03-15T00:31:13.231Z,2.25
2023-03-15T00:33:39.696Z,1.30
2023-03-15T00:36:07.586Z,1.02
2023-03-15T00:38:35.408Z,0.80
2023-03-15T00:41:09.675Z,0.60
2023-03-15T00:43:36.513Z,2.53
2023-03-15T00:46:04.282Z,0.65
2023-03-15T00:48:31.166Z,0.80
2023-03-15T00:51:13.267Z,1.35
2023-03-15T00:53:43.033Z,0.50
2023-03-15T00:56:14.837Z,0.60
2023-03-15T00:58:41.613Z,0.50
2023-03-15T01:01:10.411Z,0.68
2023-03-15T01:03:37.107Z,0.40
2023-03-15T01:06:13.965Z,0.50
2023-03-15T01:08:41.163Z,1.02
2023-03-15T01:11:10.958Z,0.60
2023-03-15T01:13:38.202Z,1.05
2023-03-15T01:16:05.662Z,0.70
2023-03-15T01:18:32.353Z,1.00
2023-03-15T01:20:59.346Z,1.10
2023-03-15T01:23:26.283Z,1.17
2023-03-15T01:25:52.746Z,1.58
2023-03-15T01:28:19.189Z,1.65
2023-03-15T01:30:50.534Z,1.65
2023-03-15T01:33:17.166Z,3.17
2023-03-15T01:35:43.910Z,2.90
2023-03-15T01:38:10.461Z,1.90
2023-03-15T01:40:44.321Z,3.88
2023-03-15T01:43:17.197Z,2.17
2023-03-15T01:46:13.119Z,2.22
2023-03-15T01:49:12.493Z,1.50
2023-03-15T01:51:46.547Z,1.52
2023-03-15T01:54:20.924Z,1.45
2023-03-15T01:57:31.418Z,2.50
2023-03-15T02:00:13.467Z,2.22
2023-03-15T02:02:46.472Z,3.53
2023-03-15T02:05:18.878Z,1.80
2023-03-15T02:07:49.902Z,2.58
2023-03-15T02:10:38.531Z,2.58
2023-03-15T02:13:06.733Z,3.08
2023-03-15T02:15:33.252Z,3.55
2023-03-15T02:17:59.659Z,2.58
2023-03-15T02:20:50.179Z,2.83
2023-03-15T02:23:20.088Z,3.17
2023-03-15T02:26:21.106Z,3.83
2023-03-15T02:28:48.736Z,2.65
2023-03-15T02:31:15.678Z,3.00
2023-03-15T02:33:45.115Z,2.75
2023-03-15T02:36:29.221Z,3.97
2023-03-15T02:38:56.618Z,3.60
2023-03-15T02:41:42.331Z,4.63
2023-03-15T02:44:14.568Z,3.43
2023-03-15T02:46:42.698Z,4.07
2023-03-15T02:49:11.673Z,4.63
2023-03-15T02:51:38.086Z,7.03
2023-03-15T02:54:04.550Z,4.53
2023-03-15T02:56:33.447Z,6.50
2023-03-15T02:59:00.428Z,6.43
2023-03-15T03:01:27.113Z,7.35
2023-03-15T03:03:53.579Z,6.65
2023-03-15T03:06:20.266Z,7.55
2023-03-15T03:08:47.725Z,7.43
2023-03-15T03:11:15.977Z,7.60
2023-03-15T03:13:42.846Z,7.47
2023-03-15T03:16:09.849Z,6.93
2023-03-15T03:18:36.355Z,8.88
2023-03-15T03:21:05.521Z,7.53
2023-03-15T03:23:36.500Z,6.25
2023-03-15T03:26:11.107Z,6.93
2023-03-15T03:28:37.518Z,8.00
2023-03-15T03:31:04.004Z,8.27
2023-03-15T03:33:30.422Z,8.15
2023-03-15T03:36:02.296Z,7.03
2023-03-15T03:38:28.751Z,6.53
2023-03-15T03:40:55.156Z,10.90
2023-03-15T03:43:21.723Z,8.38
2023-03-15T03:45:48.158Z,7.45
2023-03-15T03:48:14.576Z,9.48
2023-03-15T03:50:41.013Z,7.43
2023-03-15T03:53:07.402Z,8.60
2023-03-15T03:55:33.965Z,9.18
2023-03-15T03:58:00.973Z,5.95
2023-03-15T04:00:27.486Z,7.82
2023-03-15T04:02:54.152Z,5.05
2023-03-15T04:05:21.019Z,11.70
2023-03-15T04:07:47.443Z,6.28
2023-03-15T04:10:17.031Z,5.32
2023-03-15T04:12:44.029Z,5.43
2023-03-15T04:15:11.812Z,6.57
2023-03-15T04:17:39.449Z,9.63
2023-03-15T04:20:11.932Z,7.80
2023-03-15T04:22:39.461Z,6.57
2023-03-15T04:25:07.277Z,7.25
2023-03-15T04:27:35.722Z,6.15
2023-03-15T04:30:05.275Z,5.38
2023-03-15T04:32:31.984Z,6.43
2023-03-15T04:34:58.386Z,8.50
2023-03-15T04:37:24.859Z,12.52
2023-03-15T04:39:52.404Z,5.80
2023-03-15T04:42:18.834Z,10.02
2023-03-15T04:44:45.251Z,7.47
2023-03-15T04:47:11.712Z,6.43
2023-03-15T04:49:38.318Z,8.23
2023-03-15T04:52:04.806Z,9.25
2023-03-15T04:54:31.247Z,9.25
2023-03-15T04:57:10.107Z,10.25
2023-03-15T04:59:36.549Z,9.13
2023-03-15T05:02:07.368Z,10.30
2023-03-15T05:04:37.789Z,25.98
2023-03-15T05:07:04.216Z,60.10
2023-03-15T05:09:39.689Z,11.95
2023-03-15T05:12:12.721Z,10.18
2023-03-15T05:14:45.376Z,10.82
2023-03-15T05:17:18.024Z,10.52
2023-03-15T05:19:44.483Z,13.30
2023-03-15T05:22:10.884Z,16.35
2023-03-15T05:24:43.777Z,10.57
2023-03-15T05:27:13.505Z,11.20
2023-03-15T05:29:47.326Z,11.18
2023-03-15T05:32:13.923Z,15.13
2023-03-15T05:34:40.411Z,11.50
2023-03-15T05:37:07.910Z,11.65
2023-03-15T05:39:41.666Z,11.30
2023-03-15T05:42:08.065Z,12.52
2023-03-15T05:44:34.488Z,13.20
2023-03-15T05:47:00.927Z,14.90
2023-03-15T05:49:27.455Z,11.35
2023-03-15T05:51:53.956Z,19.70
2023-03-15T05:54:20.433Z,11.70
2023-03-15T05:56:46.853Z,10.93
2023-03-15T05:59:13.332Z,14.35
2023-03-15T06:01:39.772Z,13.35
2023-03-15T06:04:06.240Z,8.45
2023-03-15T06:06:33.823Z,10.38
2023-03-15T06:09:00.703Z,9.68
2023-03-15T06:11:27.233Z,12.40
2023-03-15T06:13:53.626Z,13.32
2023-03-15T06:16:20.342Z,10.75
2023-03-15T06:19:21.726Z,11.27
2023-03-15T06:21:48.608Z,11.32
2023-03-15T06:24:15.693Z,11.77
2023-03-15T06:26:42.342Z,12.13
2023-03-15T06:29:08.831Z,13.82
2023-03-15T06:31:35.276Z,13.52
2023-03-15T06:34:01.909Z,13.60
2023-03-15T06:36:28.350Z,10.57
2023-03-15T06:38:55.786Z,17.73
2023-03-15T06:41:22.174Z,13.25
2023-03-15T06:43:48.569Z,12.63
2023-03-15T06:46:15.343Z,12.50
2023-03-15T06:48:41.801Z,14.30
2023-03-15T06:51:10.758Z,12.07
2023-03-15T06:53:37.181Z,13.27
2023-03-15T06:56:03.749Z,14.60
2023-03-15T06:58:30.140Z,10.73
2023-03-15T07:00:56.848Z,14.05
2023-03-15T07:03:23.692Z,9.65
2023-03-15T07:05:53.908Z,16.98
2023-03-15T07:08:25.361Z,14.40
2023-03-15T07:11:06.334Z,13.98
2023-03-15T07:13:32.760Z,14.85
2023-03-15T07:15:59.207Z,8.73
2023-03-15T07:18:25.678Z,10.63
2023-03-15T07:20:59.629Z,10.23
2023-03-15T07:23:26.611Z,9.73
2023-03-15T07:25:55.475Z,8.93
2023-03-15T07:28:23.676Z,8.32
2023-03-15T07:31:01.909Z,11.93
2023-03-15T07:33:30.399Z,12.80
2023-03-15T07:36:05.435Z,14.27
2023-03-15T07:38:33.305Z,20.75
2023-03-15T07:41:06.604Z,12.82
2023-03-15T07:43:33.754Z,9.27
2023-03-15T07:46:00.293Z,9.38
2023-03-15T07:48:29.145Z,10.23
2023-03-15T07:50:56.146Z,10.35
2023-03-15T07:53:22.542Z,9.45
2023-03-15T07:55:50.041Z,9.30
2023-03-15T07:58:18.479Z,10.23
2023-03-15T08:00:46.211Z,13.48
2023-03-15T08:03:12.868Z,9.88
2023-03-15T08:05:39.887Z,7.85
2023-03-15T08:08:07.210Z,7.22
2023-03-15T08:10:33.654Z,9.55
2023-03-15T08:13:00.052Z,9.25
2023-03-15T08:15:26.493Z,9.38
2023-03-15T08:17:52.943Z,10.40
2023-03-15T08:20:19.436Z,14.02
2023-03-15T08:22:48.003Z,7.00
2023-03-15T08:25:16.601Z,10.07
2023-03-15T08:27:43.170Z,7.28
2023-03-15T08:30:12.544Z,6.68
2023-03-15T08:32:40.158Z,9.15
2023-03-15T08:35:07.690Z,10.70
2023-03-15T08:37:34.407Z,8.00
2023-03-15T08:40:10.429Z,11.15
2023-03-15T08:42:37.917Z,7.40
2023-03-15T08:45:07.064Z,8.68
2023-03-15T08:47:37.408Z,4.60
2023-03-15T08:50:10.901Z,4.93
2023-03-15T08:52:37.573Z,7.60
2023-03-15T08:55:04.894Z,10.30
2023-03-15T08:57:32.781Z,4.15
2023-03-15T09:00:01.647Z,9.98
2023-03-15T09:02:29.021Z,5.22
2023-03-15T09:04:55.459Z,4.00
2023-03-15T09:07:21.907Z,4.10
2023-03-15T09:09:49.072Z,3.47
2023-03-15T09:12:16.881Z,4.32
2023-03-15T09:14:44.029Z,4.05
2023-03-15T09:17:10.855Z,4.50
2023-03-15T09:19:37.572Z,8.15
2023-03-15T09:22:16.339Z,3.17
2023-03-15T09:24:51.463Z,4.70
2023-03-15T09:27:18.505Z,4.85
2023-03-15T09:29:44.897Z,1.30
2023-03-15T09:32:11.729Z,2.35
2023-03-15T09:34:41.917Z,2.55
2023-03-15T09:37:08.777Z,2.88
2023-03-15T09:39:35.165Z,2.28
2023-03-15T09:42:04.227Z,3.13
2023-03-15T09:44:38.416Z,4.68
2023-03-15T09:47:28.111Z,3.60
2023-03-15T09:50:12.394Z,5.57
2023-03-15T09:52:47.967Z,3.70
2023-03-15T09:55:22.893Z,1.75
2023-03-15T09:57:59.268Z,3.55
2023-03-15T10:00:38.809Z,6.22
2023-03-15T10:03:09.793Z,5.18
2023-03-15T10:05:42.415Z,2.47
2023-03-15T10:08:19.161Z,1.65
2023-03-15T10:11:06.859Z,3.22
2023-03-15T10:13:45.321Z,4.75
2023-03-15T10:16:17.924Z,4.97
2023-03-15T10:19:13.811Z,7.80
2023-03-15T10:21:55.975Z,3.17
2023-03-15T10:24:44.044Z,2.80
2023-03-15T10:27:22.604Z,2.72
2023-03-15T10:29:52.278Z,2.75
2023-03-15T10:32:22.576Z,5.40
2023-03-15T10:34:52.990Z,2.28
2023-03-15T10:37:19.966Z,2.50
2023-03-15T10:39:54.701Z,1.27
2023-03-15T10:42:25.449Z,0.98
2023-03-15T10:44:51.888Z,1.92
2023-03-15T10:47:23.922Z,1.77
2023-03-15T10:49:56.845Z,2.60
2023-03-15T10:52:35.307Z,2.72
2023-03-15T10:55:43.282Z,1.98
2023-03-15T11:00:51.077Z,1.38
2023-03-15T11:03:24.261Z,1.67
2023-03-15T11:05:53.898Z,1.90
2023-03-15T11:08:23.165Z,3.85
2023-03-15T11:10:58.706Z,1.80
2023-03-15T11:13:52.505Z,1.35
2023-03-15T11:16:21.747Z,2.30
2023-03-15T11:19:01.608Z,1.92
2023-03-15T11:21:34.454Z,2.33
2023-03-15T11:24:03.234Z,1.33
2023-03-15T11:26:35.354Z,1.95
2023-03-15T11:29:22.131Z,2.47
2023-03-15T11:34:25.713Z,1.40
2023-03-15T11:37:07.654Z,4.65
2023-03-15T11:39:45.336Z,2.15
2023-03-15T11:42:22.812Z,2.10
2023-03-15T11:44:55.090Z,2.10
2023-03-15T11:47:47.122Z,3.45
2023-03-15T11:50:15.534Z,1.10
2023-03-15T11:53:02.959Z,2.28
2023-03-15T11:55:30.033Z,1.45
2023-03-15T11:57:58.431Z,9.43
2023-03-15T12:00:34.742Z,1.33
2023-03-15T12:06:01.778Z,1.65
2023-03-15T12:08:34.639Z,0.85
2023-03-15T12:11:01.472Z,1.25
2023-03-15T12:13:31.998Z,2.28
2023-03-15T12:15:59.228Z,1.45
2023-03-15T12:18:47.965Z,1.80
2023-03-15T12:21:17.790Z,1.48
2023-03-15T12:24:17.234Z,1.85
2023-03-15T12:27:20.508Z,1.83
2023-03-15T12:30:00.291Z,1.17
2023-03-15T14:06:13.195Z,1.60
2023-03-15T14:08:44.026Z,1.00
2023-03-15T14:11:37.847Z,1.15
2023-03-15T14:14:22.230Z,1.17
2023-03-15T14:17:03.590Z,1.42
2023-03-15T14:19:33.151Z,1.02
2023-03-15T14:22:17.782Z,1.10
2023-03-15T14:24:47.829Z,1.35
2023-03-15T14:27:17.862Z,1.40
2023-03-15T14:29:50.732Z,1.17
2023-03-15T14:32:23.525Z,1.35
2023-03-15T14:34:49.934Z,1.67
2023-03-15T14:37:28.548Z,0.68
2023-03-15T14:40:20.994Z,2.58
2023-03-15T14:42:49.164Z,2.45
2023-03-15T14:45:18.299Z,3.03
2023-03-15T14:47:56.813Z,1.13
2023-03-15T14:50:30.773Z,1.20
2023-03-15T14:52:58.943Z,0.50
2023-03-15T14:55:30.135Z,0.55
2023-03-15T14:58:01.413Z,0.50
2023-03-15T15:00:28.254Z,2.30
2023-03-15T15:02:56.910Z,1.23
2023-03-15T15:05:31.783Z,3.03
2023-03-15T15:08:03.741Z,3.90
2023-03-15T15:10:31.416Z,2.35
2023-03-15T15:13:05.984Z,1.67
2023-03-15T15:15:43.951Z,1.33
2023-03-15T15:18:18.513Z,2.35
2023-03-15T15:20:54.089Z,3.33
2023-03-15T15:23:23.365Z,2.55
2023-03-15T15:25:51.875Z,0.80
2023-03-15T15:28:33.271Z,2.13
2023-03-15T16:32:59.196Z,2.13
2023-03-15T16:35:35.431Z,2.58
2023-03-15T16:38:05.978Z,1.33
2023-03-15T16:40:34.602Z,1.08
2023-03-15T16:43:01.499Z,0.98
2023-03-15T16:45:28.502Z,13.02
2023-03-15T16:47:56.353Z,1.50
2023-03-15T16:50:23.220Z,1.83
2023-03-15T16:52:53.021Z,3.00
2023-03-15T16:55:24.961Z,1.42
2023-03-15T16:57:51.900Z,1.52
2023-03-15T17:00:20.207Z,3.00
2023-03-15T17:02:49.111Z,2.85
2023-03-15T17:05:18.915Z,4.47
2023-03-15T17:07:48.031Z,2.53
2023-03-15T17:10:34.679Z,2.80
2023-03-15T17:13:03.024Z,4.28
2023-03-15T17:15:29.881Z,3.53
2023-03-15T17:17:57.559Z,3.30
2023-03-15T17:20:30.848Z,2.75
2023-03-15T17:23:02.673Z,3.90
2023-03-15T17:25:30.871Z,4.25
2023-03-15T17:27:57.261Z,4.10
2023-03-15T17:30:29.134Z,5.20
2023-03-15T17:32:56.143Z,8.75
2023-03-15T17:35:34.997Z,11.20
2023-03-15T17:38:04.165Z,4.82
2023-03-15T17:40:33.517Z,2.25
2023-03-15T17:43:02.002Z,1.58
2023-03-15T17:45:33.811Z,2.63
2023-03-15T17:48:01.162Z,3.30
2023-03-15T17:50:30.476Z,1.17
2023-03-15T17:53:17.113Z,2.47
2023-03-15T17:55:44.319Z,4.10
2023-03-15T17:58:19.916Z,4.75
2023-03-15T18:00:48.380Z,3.90
2023-03-15T18:03:15.905Z,2.97
2023-03-15T18:05:43.230Z,3.75
2023-03-15T18:08:14.932Z,3.45
2023-03-15T18:10:42.504Z,5.25
2023-03-15T18:13:13.388Z,3.78
2023-03-15T18:16:14.580Z,2.33
2023-03-15T18:18:42.037Z,4.18
2023-03-15T18:21:13.694Z,3.42
2023-03-15T18:23:40.622Z,7.18
2023-03-15T18:26:07.265Z,3.75
2023-03-15T18:28:33.710Z,3.45
2023-03-15T18:31:00.125Z,3.90
2023-03-15T18:33:26.650Z,3.92
2023-03-15T18:35:53.597Z,2.92
2023-03-15T18:38:20.392Z,3.33
2023-03-15T18:40:47.015Z,2.30
2023-03-15T18:43:14.420Z,5.95
2023-03-15T18:45:41.570Z,3.47
2023-03-15T18:48:08.152Z,4.53
2023-03-15T18:50:35.747Z,4.72
2023-03-15T18:53:03.980Z,3.72
2023-03-15T18:55:31.895Z,4.15
2023-03-15T18:57:58.278Z,3.53
2023-03-15T19:00:29.420Z,3.65
2023-03-15T19:03:00.845Z,5.25
2023-03-15T19:05:37.927Z,3.05
2023-03-15T19:08:04.989Z,3.00
2023-03-15T19:10:35.687Z,2.67
2023-03-15T19:13:04.703Z,2.35
2023-03-15T19:15:31.388Z,2.75
2023-03-15T19:18:00.807Z,3.55
2023-03-15T19:20:37.160Z,1.75
2023-03-15T19:25:36.028Z,4.70
2023-03-15T19:28:02.438Z,6.82
2023-03-15T20:11:04.144Z,2.63
2023-03-15T20:13:37.758Z,6.18
2023-03-15T20:16:05.796Z,2.92
2023-03-15T20:18:32.362Z,3.72
2023-03-15T20:20:58.869Z,3.53
2023-03-15T20:23:25.319Z,2.72
2023-03-15T20:25:51.786Z,3.38
2023-03-15T20:28:20.313Z,4.88
2023-03-15T20:30:46.694Z,5.43
2023-03-15T20:33:13.088Z,6.30
2023-03-15T20:35:40.075Z,6.45
2023-03-15T20:38:09.345Z,6.70
2023-03-15T20:40:40.847Z,8.63
2023-03-15T20:43:07.836Z,8.68
2023-03-15T20:45:55.824Z,7.03
2023-03-15T20:48:24.680Z,8.55
2023-03-15T20:51:03.741Z,5.47
2023-03-15T20:53:38.194Z,2.28
2023-03-15T20:56:05.389Z,4.63
2023-03-15T20:58:32.427Z,3.83
2023-03-15T21:01:10.664Z,4.45
2023-03-15T21:03:37.617Z,4.03
2023-03-15T21:06:05.880Z,9.30
2023-03-15T21:08:33.259Z,7.38
2023-03-15T21:11:00.154Z,7.78
2023-03-15T21:13:27.164Z,11.45
2023-03-15T21:15:54.230Z,8.27
2023-03-15T21:18:23.477Z,8.82
2023-03-15T21:21:02.104Z,5.82
2023-03-15T21:23:31.198Z,5.18
2023-03-15T21:25:59.669Z,6.82
2023-03-15T21:28:26.330Z,6.10
2023-03-15T21:30:57.456Z,11.45
2023-03-15T21:33:26.203Z,6.00
2023-03-15T21:35:52.813Z,4.65
2023-03-15T21:38:19.255Z,5.10
2023-03-15T21:40:48.107Z,4.50
2023-03-15T21:43:14.620Z,5.50
2023-03-15T21:45:42.008Z,6.03
2023-03-15T21:48:08.674Z,5.75
2023-03-15T21:50:35.341Z,4.97
2023-03-15T21:53:07.863Z,5.07
2023-03-15T21:55:41.581Z,5.40
2023-03-15T21:58:09.980Z,6.95
2023-03-15T22:00:36.566Z,6.03
2023-03-15T22:03:03.017Z,5.90
2023-03-15T22:05:29.660Z,3.80
2023-03-15T22:07:56.190Z,4.75
2023-03-15T22:10:23.114Z,3.97
2023-03-15T22:12:54.056Z,5.03
2023-03-15T22:15:21.976Z,4.55
2023-03-15T22:17:48.766Z,4.00
2023-03-15T22:20:18.646Z,5.68
2023-03-15T22:22:46.567Z,3.85
2023-03-15T22:25:14.867Z,4.15
2023-03-15T22:28:13.026Z,4.80
2023-03-15T22:30:40.265Z,6.53
2023-03-15T22:33:14.282Z,6.60
2023-03-15T22:35:41.231Z,5.18
2023-03-15T22:38:19.464Z,4.95
2023-03-15T22:40:45.988Z,6.55
2023-03-15T22:43:31.663Z,6.10
2023-03-15T22:46:11.913Z,4.75
2023-03-15T22:48:45.830Z,3.88
2023-03-15T22:52:01.996Z,4.05
2023-03-15T22:54:42.666Z,6.07
2023-03-15T22:57:17.914Z,3.88
2023-03-15T23:03:35.702Z,7.35
2023-03-15T23:06:05.451Z,4.75
2023-03-15T23:08:44.942Z,4.55
2023-03-15T23:14:14.856Z,4.07
2023-03-15T23:17:02.799Z,4.63
2023-03-15T23:22:22.311Z,5.53
2023-03-15T23:24:48.940Z,6.28
2023-03-15T23:27:29.145Z,5.90
2023-03-15T23:30:05.355Z,6.13
2023-03-15T23:38:49.302Z,5.15
2023-03-15T23:45:37.795Z,7.00
